Time;durP1;ratioP1;P1;durP2;ratioP2;P2;SDS_P1;SDS_P2;PMS_P1;PMS_P2;Temp;Humidity;BMP_temperature;BMP_pressure;BME280_temperature;BME280_humidity;BME280_pressure;Samples;Min_cycle;Max_cycle;Signal;HPM_P1;HPM_P2
2022/12/12 00:00:27;;;;;;;43.47;18.52;;;;;;;;;;5088728;28;20020;-50
2022/12/12 00:02:53;;;;;;;39.90;16.80;;;;;;;;;;5088916;28;20560;-49
2022/12/12 00:05:19;;;;;;;41.13;17.58;;;;;;;;;;5089268;28;20024;-51
2022/12/12 00:07:45;;;;;;;35.90;16.10;;;;;;;;;;5088815;28;20082;-50
2022/12/12 00:10:11;;;;;;;34.55;15.85;;;;;;;;;;5087551;28;20033;-51
2022/12/12 00:12:37;;;;;;;41.28;17.00;;;;;;;;;;5088652;28;20031;-49
2022/12/12 00:15:04;;;;;;;35.63;16.13;;;;;;;;;;5088619;28;20119;-50
2022/12/12 00:17:30;;;;;;;34.13;14.38;;;;;;;;;;5088071;28;20035;-49
2022/12/12 00:19:55;;;;;;;31.80;14.60;;;;;;;;;;5088267;28;20394;-50
2022/12/12 00:22:21;;;;;;;37.67;14.45;;;;;;;;;;5088466;28;20081;-51
2022/12/12 00:24:48;;;;;;;36.10;15.88;;;;;;;;;;5087555;28;20017;-48
2022/12/12 00:27:14;;;;;;;32.45;15.00;;;;;;;;;;5087366;28;20032;-48
2022/12/12 00:29:40;;;;;;;36.33;15.73;;;;;;;;;;5088327;28;20065;-50
2022/12/12 00:32:06;;;;;;;46.35;18.60;;;;;;;;;;5088180;28;20035;-51
2022/12/12 00:34:33;;;;;;;41.55;17.30;;;;;;;;;;5088163;28;20020;-50
2022/12/12 00:36:59;;;;;;;32.85;14.95;;;;;;;;;;5088208;28;20053;-51
2022/12/12 00:39:25;;;;;;;33.38;15.05;;;;;;;;;;5087593;28;20020;-50
2022/12/12 00:41:53;;;;;;;32.33;14.20;;;;;;;;;;5087884;28;20102;-51
2022/12/12 00:44:19;;;;;;;28.95;13.18;;;;;;;;;;5088528;28;20024;-52
2022/12/12 00:46:45;;;;;;;30.08;14.30;;;;;;;;;;5088114;28;20024;-50
2022/12/12 00:49:12;;;;;;;34.05;14.80;;;;;;;;;;5087605;28;20028;-48
2022/12/12 00:51:38;;;;;;;29.63;13.55;;;;;;;;;;5087812;28;20028;-51
2022/12/12 00:54:04;;;;;;;30.58;13.63;;;;;;;;;;5087673;28;20563;-48
2022/12/12 00:56:31;;;;;;;33.70;15.48;;;;;;;;;;5086827;28;20025;-49
2022/12/12 00:58:57;;;;;;;33.80;15.35;;;;;;;;;;5070878;28;20029;-49
2022/12/12 01:01:25;;;;;;;32.33;15.82;;;;;;;;;;5067696;28;20028;-52
2022/12/12 01:03:52;;;;;;;32.47;15.05;;;;;;;;;;5067354;28;20395;-50
2022/12/12 06:11:33;;;;;;;28.15;13.70;;;;;;;;;;5093799;28;20517;-49
2022/12/12 06:13:59;;;;;;;29.77;14.45;;;;;;;;;;5088476;28;20035;-49
2022/12/12 06:16:25;;;;;;;30.33;14.73;;;;;;;;;;5088141;28;20436;-48
2022/12/12 06:18:52;;;;;;;29.05;14.07;;;;;;;;;;5088001;28;20024;-48
2022/12/12 06:21:18;;;;;;;28.25;13.77;;;;;;;;;;5087912;28;20020;-49
2022/12/12 06:23:44;;;;;;;34.35;16.25;;;;;;;;;;5088337;28;20429;-49
2022/12/12 06:26:11;;;;;;;31.45;15.40;;;;;;;;;;5088162;28;20479;-49
2022/12/12 06:28:37;;;;;;;29.52;14.68;;;;;;;;;;5090584;28;20024;-48
2022/12/12 06:31:04;;;;;;;30.45;13.95;;;;;;;;;;5107574;28;20032;-50
2022/12/12 06:33:34;;;;;;;32.90;15.27;;;;;;;;;;5111361;28;20034;-49
2022/12/12 06:36:23;;;;;;;35.15;16.83;;;;;;;;;;5108118;28;20028;-50
2022/12/12 06:38:49;;;;;;;33.92;17.42;;;;;;;;;;5101084;28;20024;-48
2022/12/12 06:41:16;;;;;;;34.45;16.25;;;;;;;;;;5110846;28;20098;-48
2022/12/12 06:43:42;;;;;;;32.67;16.00;;;;;;;;;;5103966;28;20118;-52
2022/12/12 06:46:12;;;;;;;36.20;18.13;;;;;;;;;;5111863;28;20030;-49
2022/12/12 06:48:38;;;;;;;41.42;22.38;;;;;;;;;;5111061;28;20106;-48
2022/12/12 06:51:07;;;;;;;40.13;20.52;;;;;;;;;;5112033;28;20111;-50
2022/12/12 06:53:33;;;;;;;35.70;19.10;;;;;;;;;;5112199;28;20055;-49
2022/12/12 06:55:59;;;;;;;31.58;17.60;;;;;;;;;;5111873;28;20032;-52
2022/12/12 06:58:25;;;;;;;32.28;16.73;;;;;;;;;;5111539;28;20035;-49
2022/12/12 07:00:52;;;;;;;31.40;14.82;;;;;;;;;;5110563;28;20023;-49
2022/12/12 07:03:18;;;;;;;30.60;15.75;;;;;;;;;;5112140;28;20027;-51
2022/12/12 07:05:47;;;;;;;30.98;15.20;;;;;;;;;;5111874;28;20034;-49
2022/12/12 07:08:14;;;;;;;29.77;15.30;;;;;;;;;;5111873;28;20524;-49
2022/12/12 07:10:40;;;;;;;34.28;16.10;;;;;;;;;;5105064;28;20149;-48
2022/12/12 07:13:07;;;;;;;32.40;16.10;;;;;;;;;;5110127;28;20043;-50
2022/12/12 07:15:33;;;;;;;29.83;14.27;;;;;;;;;;5111591;28;20497;-49
2022/12/12 07:17:59;;;;;;;36.15;15.70;;;;;;;;;;5111413;28;20569;-50
2022/12/12 07:20:25;;;;;;;33.55;16.25;;;;;;;;;;5111654;28;20095;-49
2022/12/12 07:22:51;;;;;;;31.98;14.57;;;;;;;;;;5110875;28;20708;-50
2022/12/12 07:25:17;;;;;;;27.92;14.57;;;;;;;;;;5110237;28;20043;-49
2022/12/12 07:27:43;;;;;;;31.88;15.13;;;;;;;;;;5111277;28;20446;-51
2022/12/12 07:30:11;;;;;;;36.08;16.73;;;;;;;;;;5111495;28;20027;-48
2022/12/12 07:32:37;;;;;;;45.13;18.90;;;;;;;;;;5107477;28;20028;-49
2022/12/12 07:35:03;;;;;;;39.40;18.20;;;;;;;;;;5110943;28;20408;-51
2022/12/12 07:37:29;;;;;;;41.47;17.95;;;;;;;;;;5109007;28;20031;-48
2022/12/12 07:39:55;;;;;;;40.47;17.38;;;;;;;;;;5110588;28;20500;-48
2022/12/12 07:42:21;;;;;;;38.17;16.48;;;;;;;;;;5109702;28;20135;-50
2022/12/12 07:44:47;;;;;;;35.00;16.23;;;;;;;;;;5106666;28;20061;-48
2022/12/12 07:47:13;;;;;;;35.33;16.30;;;;;;;;;;5106914;28;20504;-51
2022/12/12 07:49:39;;;;;;;31.65;14.68;;;;;;;;;;5112101;28;20027;-52
2022/12/12 07:52:06;;;;;;;29.63;14.57;;;;;;;;;;5111715;28;20069;-49
2022/12/12 07:54:32;;;;;;;29.35;15.40;;;;;;;;;;5111598;28;20024;-52
2022/12/12 07:56:59;;;;;;;28.08;14.27;;;;;;;;;;5111696;28;20084;-49
2022/12/12 07:59:25;;;;;;;31.77;14.82;;;;;;;;;;5111706;28;20039;-49
2022/12/12 08:01:51;;;;;;;29.38;14.15;;;;;;;;;;5108077;28;20096;-52
2022/12/12 08:04:17;;;;;;;28.98;14.23;;;;;;;;;;5110500;28;20027;-48
2022/12/12 08:06:44;;;;;;;31.58;15.13;;;;;;;;;;5106474;28;20080;-47
2022/12/12 08:09:10;;;;;;;32.20;15.70;;;;;;;;;;5109109;28;20050;-51
2022/12/12 08:11:38;;;;;;;28.70;15.13;;;;;;;;;;5103826;28;20537;-49
2022/12/12 08:14:06;;;;;;;29.25;14.63;;;;;;;;;;5108184;28;20092;-51
2022/12/12 08:16:32;;;;;;;26.40;14.18;;;;;;;;;;5107796;28;20498;-52
2022/12/12 08:18:58;;;;;;;28.65;14.32;;;;;;;;;;5107852;28;20030;-50
2022/12/12 08:21:25;;;;;;;28.77;14.23;;;;;;;;;;5108890;28;20031;-48
2022/12/12 08:23:51;;;;;;;30.00;14.60;;;;;;;;;;5109463;28;20034;-49
2022/12/12 08:26:18;;;;;;;26.25;13.63;;;;;;;;;;5101860;27;20035;-47
2022/12/12 08:28:47;;;;;;;25.83;13.48;;;;;;;;;;5109708;27;20107;-49
2022/12/12 08:31:14;;;;;;;24.38;13.02;;;;;;;;;;5109239;28;20045;-47
2022/12/12 08:33:40;;;;;;;28.52;14.48;;;;;;;;;;5108884;28;20046;-48
2022/12/12 08:36:12;;;;;;;27.13;13.93;;;;;;;;;;5108445;28;20126;-48
2022/12/12 08:38:38;;;;;;;25.08;13.13;;;;;;;;;;5104129;28;20048;-47
2022/12/12 08:41:04;;;;;;;26.50;13.75;;;;;;;;;;5108325;28;20486;-48
2022/12/12 08:43:30;;;;;;;26.75;14.95;;;;;;;;;;5108591;28;20023;-46
2022/12/12 08:46:00;;;;;;;27.13;15.40;;;;;;;;;;5105049;28;20040;-48
2022/12/12 08:48:26;;;;;;;28.23;14.73;;;;;;;;;;5102013;28;20441;-48
2022/12/12 08:50:52;;;;;;;31.98;15.10;;;;;;;;;;5098296;28;20045;-50
2022/12/12 08:53:18;;;;;;;27.05;13.70;;;;;;;;;;5108695;28;20035;-48
2022/12/12 08:55:44;;;;;;;25.38;13.68;;;;;;;;;;5106612;28;20039;-49
2022/12/12 08:58:10;;;;;;;27.63;13.93;;;;;;;;;;5107165;28;20027;-47
2022/12/12 09:00:36;;;;;;;26.10;14.02;;;;;;;;;;5107720;28;20028;-48
2022/12/12 09:03:03;;;;;;;27.17;13.95;;;;;;;;;;5108107;28;20019;-49
2022/12/12 09:05:29;;;;;;;24.98;12.82;;;;;;;;;;5107993;28;20024;-49
2022/12/12 09:07:55;;;;;;;24.35;12.88;;;;;;;;;;5107983;28;20022;-47
2022/12/12 09:10:21;;;;;;;26.73;14.20;;;;;;;;;;5107827;28;20034;-47
2022/12/12 09:12:47;;;;;;;25.90;13.85;;;;;;;;;;5107506;28;20032;-47
2022/12/12 09:15:13;;;;;;;26.83;14.00;;;;;;;;;;5108265;28;20024;-48
2022/12/12 09:17:39;;;;;;;25.20;13.68;;;;;;;;;;5108018;28;20028;-49
2022/12/12 09:20:06;;;;;;;27.45;13.82;;;;;;;;;;5107316;28;20042;-48
2022/12/12 09:22:32;;;;;;;27.02;14.57;;;;;;;;;;5104604;28;20067;-49
2022/12/12 09:24:59;;;;;;;26.85;13.98;;;;;;;;;;5104761;28;20028;-50
2022/12/12 09:27:25;;;;;;;27.15;14.80;;;;;;;;;;5099122;28;20072;-48
2022/12/12 09:29:51;;;;;;;28.27;14.27;;;;;;;;;;5104357;28;20717;-47
2022/12/12 09:32:17;;;;;;;25.48;13.68;;;;;;;;;;5095596;28;20489;-49
2022/12/12 09:34:43;;;;;;;26.77;13.00;;;;;;;;;;5090229;28;20493;-49
2022/12/12 09:37:09;;;;;;;26.05;14.35;;;;;;;;;;5109040;28;20098;-49
2022/12/12 09:39:35;;;;;;;25.95;13.18;;;;;;;;;;5106715;28;20402;-52
2022/12/12 09:42:09;;;;;;;26.23;14.52;;;;;;;;;;5095489;28;20066;-48
2022/12/12 09:44:35;;;;;;;24.92;13.60;;;;;;;;;;5107892;28;20020;-49
2022/12/12 09:47:05;;;;;;;27.67;14.55;;;;;;;;;;5104664;28;20035;-49
2022/12/12 09:49:39;;;;;;;26.73;13.80;;;;;;;;;;5107737;28;20043;-49
2022/12/12 09:52:06;;;;;;;;;;;;;;;;;;5104335;28;20042;-52
2022/12/12 09:54:32;;;;;;;28.92;15.63;;;;;;;;;;5087948;28;19955;-50
2022/12/12 09:57:01;;;;;;;27.98;14.82;;;;;;;;;;5105358;28;20036;-49
2022/12/12 09:59:33;;;;;;;29.30;13.45;;;;;;;;;;5106713;28;20023;-48
2022/12/12 10:02:20;;;;;;;32.85;14.50;;;;;;;;;;5091829;28;20024;-48
2022/12/12 10:04:53;;;;;;;29.23;14.85;;;;;;;;;;5094247;28;20023;-48
2022/12/12 10:07:26;;;;;;;32.70;15.45;;;;;;;;;;5097809;28;20467;-48
2022/12/12 10:10:03;;;;;;;27.35;13.80;;;;;;;;;;5087089;28;20028;-50
2022/12/12 10:12:29;;;;;;;28.85;14.75;;;;;;;;;;5086741;28;20040;-49
2022/12/12 10:15:04;;;;;;;28.98;14.82;;;;;;;;;;5099456;28;20036;-49
2022/12/12 10:17:33;;;;;;;23.70;13.87;;;;;;;;;;5103875;28;20845;-49
2022/12/12 10:20:02;;;;;;;25.65;13.50;;;;;;;;;;5105718;28;20458;-48
2022/12/12 10:22:50;;;;;;;23.25;11.77;;;;;;;;;;5105918;28;20020;-51
2022/12/12 10:25:16;;;;;;;24.48;12.90;;;;;;;;;;5105677;28;20055;-47
2022/12/12 10:27:42;;;;;;;25.40;13.18;;;;;;;;;;5104892;28;20128;-46
2022/12/12 10:30:19;;;;;;;28.08;14.40;;;;;;;;;;5094024;28;20094;-50
2022/12/12 10:33:03;;;;;;;29.48;14.68;;;;;;;;;;5104458;28;20409;-49
2022/12/12 10:35:37;;;;;;;29.35;15.27;;;;;;;;;;5105412;28;20034;-49
2022/12/12 10:38:26;;;;;;;33.30;16.67;;;;;;;;;;5105591;28;20111;-49
2022/12/12 10:41:02;;;;;;;25.92;13.80;;;;;;;;;;5091556;28;20031;-50
2022/12/12 10:43:28;;;;;;;24.83;14.20;;;;;;;;;;5102218;28;20024;-50
2022/12/12 10:45:54;;;;;;;29.65;14.68;;;;;;;;;;5104563;28;20027;-51
2022/12/12 10:48:20;;;;;;;28.75;14.57;;;;;;;;;;5100509;28;20483;-47
2022/12/12 10:50:55;;;;;;;31.17;15.20;;;;;;;;;;5085987;28;20035;-48
2022/12/12 10:53:21;;;;;;;27.52;14.13;;;;;;;;;;5106197;28;20128;-47
2022/12/12 10:55:52;;;;;;;28.48;14.70;;;;;;;;;;5106301;28;20073;-47
2022/12/12 10:58:19;;;;;;;30.48;14.93;;;;;;;;;;5106444;28;20038;-51
2022/12/12 11:00:48;;;;;;;30.50;14.70;;;;;;;;;;5104899;28;20024;-48
2022/12/12 11:03:26;;;;;;;32.13;15.43;;;;;;;;;;5105414;28;20093;-50
2022/12/12 11:05:52;;;;;;;32.95;15.07;;;;;;;;;;5099199;28;20043;-52
2022/12/12 11:08:20;;;;;;;33.08;16.13;;;;;;;;;;5101509;28;20031;-50
2022/12/12 11:10:57;;;;;;;33.17;15.07;;;;;;;;;;5104346;28;20023;-50
2022/12/12 11:13:23;;;;;;;32.00;14.82;;;;;;;;;;5086962;28;20036;-52
2022/12/12 11:15:50;;;;;;;30.40;14.88;;;;;;;;;;5102700;28;20016;-50
2022/12/12 11:18:20;;;;;;;30.35;14.25;;;;;;;;;;5093603;28;20216;-48
2022/12/12 11:20:52;;;;;;;28.90;14.60;;;;;;;;;;5103972;28;20401;-51
2022/12/12 11:23:20;;;;;;;31.85;15.38;;;;;;;;;;5109020;28;20031;-47
2022/12/12 11:25:53;;;;;;;31.10;15.10;;;;;;;;;;5107775;28;20019;-47
2022/12/12 11:28:22;;;;;;;31.65;15.18;;;;;;;;;;5103510;28;20071;-47
2022/12/12 11:30:50;;;;;;;31.38;14.75;;;;;;;;;;5099997;28;20030;-50
2022/12/12 11:33:19;;;;;;;29.02;14.38;;;;;;;;;;5110565;28;20027;-52
2022/12/12 11:35:45;;;;;;;30.10;14.32;;;;;;;;;;5107303;28;20115;-48
2022/12/12 11:38:17;;;;;;;23.10;13.02;;;;;;;;;;5091156;28;20028;-48
2022/12/12 11:40:43;;;;;;;26.00;13.77;;;;;;;;;;5103487;28;20044;-47
2022/12/12 11:43:28;;;;;;;24.38;13.48;;;;;;;;;;5110045;28;20023;-50
2022/12/12 11:46:02;;;;;;;29.10;15.65;;;;;;;;;;5110320;28;20020;-47
2022/12/12 11:48:28;;;;;;;25.83;14.32;;;;;;;;;;5105041;28;20042;-48
2022/12/12 11:50:54;;;;;;;26.95;14.98;;;;;;;;;;5105969;28;20399;-51
2022/12/12 11:53:20;;;;;;;24.77;13.82;;;;;;;;;;5107305;28;20031;-50
2022/12/12 11:55:51;;;;;;;27.70;14.57;;;;;;;;;;5107738;28;20023;-50
2022/12/12 11:58:22;;;;;;;27.30;14.35;;;;;;;;;;5107753;28;20505;-51
2022/12/12 12:01:01;;;;;;;26.10;13.75;;;;;;;;;;5105216;28;20023;-48
2022/12/12 12:03:49;;;;;;;23.33;13.13;;;;;;;;;;5110116;28;20023;-50
2022/12/12 12:06:28;;;;;;;24.88;13.27;;;;;;;;;;5110216;28;20031;-48
2022/12/12 12:09:00;;;;;;;24.00;13.25;;;;;;;;;;5109315;28;20036;-48
2022/12/12 12:11:38;;;;;;;22.70;12.68;;;;;;;;;;5107939;28;20182;-52
2022/12/12 12:14:22;;;;;;;25.48;13.70;;;;;;;;;;5108388;28;20498;-51
2022/12/12 12:17:07;;;;;;;22.95;12.80;;;;;;;;;;5092356;28;20043;-48
2022/12/12 12:19:47;;;;;;;21.73;11.65;;;;;;;;;;5103840;28;20062;-49
2022/12/12 12:22:31;;;;;;;21.73;11.55;;;;;;;;;;5105393;28;20465;-47
2022/12/12 12:25:12;;;;;;;21.05;11.38;;;;;;;;;;5110081;28;20034;-48
2022/12/12 12:27:38;;;;;;;20.33;11.05;;;;;;;;;;5108965;28;20101;-49
2022/12/12 12:30:19;;;;;;;19.23;11.02;;;;;;;;;;5109773;28;20569;-48
2022/12/12 12:32:45;;;;;;;19.13;10.80;;;;;;;;;;5106316;28;20027;-48
2022/12/12 12:35:11;;;;;;;21.98;12.38;;;;;;;;;;5091095;28;20544;-51
2022/12/12 12:37:55;;;;;;;20.17;10.85;;;;;;;;;;5091244;28;20085;-52
2022/12/12 12:40:30;;;;;;;21.73;11.18;;;;;;;;;;5110398;28;20051;-49
2022/12/12 12:42:56;;;;;;;18.83;10.60;;;;;;;;;;5110537;28;20073;-51
2022/12/12 12:45:38;;;;;;;18.90;10.55;;;;;;;;;;5110864;28;20038;-49
2022/12/12 12:48:24;;;;;;;21.67;11.70;;;;;;;;;;5110880;27;20028;-51
2022/12/12 12:51:02;;;;;;;20.42;11.52;;;;;;;;;;5082909;28;20418;-52
2022/12/12 12:53:41;;;;;;;21.95;11.82;;;;;;;;;;5109363;28;20035;-52
2022/12/12 12:56:24;;;;;;;23.88;13.13;;;;;;;;;;5097441;28;20085;-50
2022/12/12 12:58:52;;;;;;;23.98;13.23;;;;;;;;;;5108294;28;20681;-48
2022/12/12 13:01:44;;;;;;;26.13;14.23;;;;;;;;;;5107188;28;20494;-49
2022/12/12 13:04:10;;;;;;;23.20;13.13;;;;;;;;;;5104366;28;20127;-48
2022/12/12 13:06:59;;;;;;;23.73;12.73;;;;;;;;;;5108746;28;20110;-48
2022/12/12 13:09:28;;;;;;;23.92;12.98;;;;;;;;;;5060367;28;20027;-47
2022/12/12 13:11:57;;;;;;;19.63;12.38;;;;;;;;;;5108869;28;20031;-50
2022/12/12 13:14:23;;;;;;;19.52;11.52;;;;;;;;;;5088846;28;20117;-48
2022/12/12 13:16:51;;;;;;;21.20;11.60;;;;;;;;;;5087722;28;20028;-47
2022/12/12 13:19:27;;;;;;;20.40;11.57;;;;;;;;;;5087386;28;20031;-49
2022/12/12 13:22:02;;;;;;;21.67;11.50;;;;;;;;;;5088546;28;20028;-47
2022/12/12 13:24:35;;;;;;;22.35;12.15;;;;;;;;;;5088431;28;20027;-48
2022/12/12 13:27:03;;;;;;;20.90;12.13;;;;;;;;;;5085943;28;20028;-48
2022/12/12 13:29:35;;;;;;;24.05;13.65;;;;;;;;;;5088542;28;20032;-49
2022/12/12 13:32:07;;;;;;;21.30;12.38;;;;;;;;;;5084776;28;20055;-48
2022/12/12 13:34:37;;;;;;;21.77;11.50;;;;;;;;;;5085422;28;20019;-48
2022/12/12 13:37:04;;;;;;;21.98;12.15;;;;;;;;;;5080928;28;20296;-48
2022/12/12 13:39:32;;;;;;;21.17;11.80;;;;;;;;;;5078596;28;20099;-48
2022/12/12 13:42:01;;;;;;;22.77;12.95;;;;;;;;;;5087734;28;20479;-47
2022/12/12 13:44:34;;;;;;;24.75;13.23;;;;;;;;;;5086348;28;20052;-49
2022/12/12 13:47:01;;;;;;;22.67;12.82;;;;;;;;;;5084230;28;20032;-49
2022/12/12 13:49:30;;;;;;;22.63;13.32;;;;;;;;;;5084933;28;20567;-48
2022/12/12 13:52:15;;;;;;;24.48;12.57;;;;;;;;;;5081819;28;20032;-47
2022/12/12 13:54:45;;;;;;;22.67;12.38;;;;;;;;;;5088192;28;20085;-50
2022/12/12 13:57:12;;;;;;;22.52;12.20;;;;;;;;;;5088027;28;20036;-49
2022/12/12 13:59:53;;;;;;;22.65;12.30;;;;;;;;;;5088224;28;20047;-48
2022/12/12 14:02:22;;;;;;;22.70;12.38;;;;;;;;;;5088203;28;20413;-47
2022/12/12 14:05:07;;;;;;;23.77;12.85;;;;;;;;;;5069659;28;20122;-48
2022/12/12 14:07:34;;;;;;;22.58;12.55;;;;;;;;;;5069970;28;20036;-48
2022/12/12 14:10:13;;;;;;;21.70;11.80;;;;;;;;;;5086055;28;20495;-49
2022/12/12 14:12:39;;;;;;;19.23;11.02;;;;;;;;;;5093450;28;20599;-48
2022/12/12 14:15:07;;;;;;;21.58;11.73;;;;;;;;;;5094672;28;20032;-53
2022/12/12 14:17:34;;;;;;;21.73;11.93;;;;;;;;;;5068206;28;20486;-51
2022/12/12 14:20:00;;;;;;;19.73;11.63;;;;;;;;;;5076989;28;20528;-51
2022/12/12 14:22:36;;;;;;;19.88;10.98;;;;;;;;;;5083611;28;20032;-50
2022/12/12 14:25:05;;;;;;;20.50;10.98;;;;;;;;;;5087992;28;20074;-48
2022/12/12 14:27:51;;;;;;;21.20;11.10;;;;;;;;;;5075410;28;20351;-48
2022/12/12 14:30:17;;;;;;;21.27;11.63;;;;;;;;;;5059698;28;20083;-50
2022/12/12 14:33:06;;;;;;;20.85;11.52;;;;;;;;;;5080991;28;20507;-49
2022/12/12 14:35:32;;;;;;;21.52;11.73;;;;;;;;;;5040793;28;20047;-49
2022/12/12 14:38:01;;;;;;;19.52;11.27;;;;;;;;;;5087280;28;20127;-49
2022/12/12 14:40:30;;;;;;;19.50;11.30;;;;;;;;;;5086567;28;20028;-50
2022/12/12 14:43:22;;;;;;;21.55;12.25;;;;;;;;;;5067590;28;20107;-48
2022/12/12 14:45:49;;;;;;;20.05;11.15;;;;;;;;;;5066131;28;20568;-48
2022/12/12 14:48:17;;;;;;;21.30;11.57;;;;;;;;;;5077854;28;20123;-48
2022/12/12 14:50:45;;;;;;;21.30;12.25;;;;;;;;;;5069005;28;20032;-50
2022/12/12 14:53:18;;;;;;;21.10;11.55;;;;;;;;;;5078691;28;20025;-49
2022/12/12 14:56:11;;;;;;;23.27;11.63;;;;;;;;;;5084660;28;20063;-49
2022/12/12 14:58:46;;;;;;;19.77;11.35;;;;;;;;;;5095370;28;20036;-48
2022/12/12 15:01:15;;;;;;;22.52;12.07;;;;;;;;;;5088427;28;20023;-51
2022/12/12 15:03:46;;;;;;;22.27;12.23;;;;;;;;;;5083175;28;20134;-49
2022/12/12 15:06:51;;;;;;;20.45;11.15;;;;;;;;;;5087695;28;20032;-48
2022/12/12 15:09:43;;;;;;;22.25;12.40;;;;;;;;;;4991848;28;20456;-49
2022/12/12 15:12:12;;;;;;;22.13;12.10;;;;;;;;;;4992244;28;20050;-49
2022/12/12 15:14:38;;;;;;;23.05;12.73;;;;;;;;;;5064881;28;20540;-51
2022/12/12 15:17:04;;;;;;;20.77;11.68;;;;;;;;;;5089425;28;20192;-51
2022/12/12 15:19:34;;;;;;;22.08;12.27;;;;;;;;;;5090063;28;20107;-48
2022/12/12 15:22:00;;;;;;;28.30;14.15;;;;;;;;;;5091090;28;20027;-48
2022/12/12 15:24:28;;;;;;;23.52;13.00;;;;;;;;;;5091663;28;20035;-49
2022/12/12 15:26:57;;;;;;;29.67;15.85;;;;;;;;;;5089677;28;20561;-48
2022/12/12 15:29:24;;;;;;;30.08;15.30;;;;;;;;;;5089631;28;20032;-48
2022/12/12 15:31:54;;;;;;;33.78;17.17;;;;;;;;;;5090406;28;20036;-49
2022/12/12 15:34:35;;;;;;;34.97;17.63;;;;;;;;;;5086666;28;20084;-53
2022/12/12 15:37:30;;;;;;;36.20;18.38;;;;;;;;;;5083220;28;20057;-48
2022/12/12 15:40:02;;;;;;;33.67;16.90;;;;;;;;;;5082632;28;20068;-50
2022/12/12 15:42:28;;;;;;;33.95;17.35;;;;;;;;;;5086270;28;20024;-51
2022/12/12 15:44:55;;;;;;;36.95;17.75;;;;;;;;;;5090652;28;20035;-50
2022/12/12 15:47:22;;;;;;;40.17;18.17;;;;;;;;;;5095105;28;20024;-50
2022/12/12 15:49:48;;;;;;;36.47;17.67;;;;;;;;;;5096790;28;20144;-49
2022/12/12 15:52:28;;;;;;;34.03;16.52;;;;;;;;;;5097384;28;20020;-48
2022/12/12 15:54:55;;;;;;;33.35;16.08;;;;;;;;;;5097226;28;20056;-50
2022/12/12 15:57:23;;;;;;;30.13;16.23;;;;;;;;;;5092313;28;20095;-50
2022/12/12 15:59:57;;;;;;;33.55;16.15;;;;;;;;;;5105155;28;20069;-47
2022/12/12 16:02:23;;;;;;;;;;;;;;;;;;5093963;28;20027;-49
2022/12/12 16:05:13;;;;;;;37.65;18.08;;;;;;;;;;5103666;28;19904;-49
2022/12/12 16:07:39;;;;;;;35.10;18.17;;;;;;;;;;5094278;28;20039;-48
2022/12/12 16:10:11;;;;;;;38.80;19.10;;;;;;;;;;5095473;28;20028;-49
2022/12/12 16:12:56;;;;;;;34.67;17.55;;;;;;;;;;5094501;27;20114;-51
2022/12/12 16:15:36;;;;;;;34.10;16.85;;;;;;;;;;5104408;27;20410;-48
2022/12/12 16:18:02;;;;;;;29.33;15.20;;;;;;;;;;5098000;27;20031;-49
2022/12/12 16:20:28;;;;;;;29.27;15.07;;;;;;;;;;5103023;27;20031;-49
2022/12/12 16:22:54;;;;;;;27.52;14.85;;;;;;;;;;5107000;27;20023;-52
2022/12/12 16:25:20;;;;;;;28.98;14.75;;;;;;;;;;5100982;28;20550;-48
2022/12/12 16:27:51;;;;;;;30.50;14.90;;;;;;;;;;5098266;28;20028;-51
2022/12/12 16:30:17;;;;;;;27.73;14.00;;;;;;;;;;5098763;28;20023;-48
2022/12/12 16:32:43;;;;;;;28.92;14.20;;;;;;;;;;5094225;27;20032;-51
2022/12/12 16:35:16;;;;;;;24.60;12.65;;;;;;;;;;5095309;27;20486;-49
2022/12/12 16:37:42;;;;;;;26.05;13.27;;;;;;;;;;5097636;28;20039;-49
2022/12/12 16:40:12;;;;;;;24.90;13.70;;;;;;;;;;5099613;28;20024;-49
2022/12/12 16:42:38;;;;;;;25.80;14.27;;;;;;;;;;5097790;28;20058;-49
2022/12/12 16:45:04;;;;;;;26.05;13.25;;;;;;;;;;5097906;28;20027;-50
2022/12/12 16:47:30;;;;;;;26.58;13.32;;;;;;;;;;5097675;27;20073;-47
2022/12/12 16:49:56;;;;;;;26.52;13.68;;;;;;;;;;5109360;27;20030;-48
2022/12/12 16:52:22;;;;;;;27.73;13.70;;;;;;;;;;5126116;27;20034;-50
2022/12/12 16:54:49;;;;;;;28.85;14.55;;;;;;;;;;5097742;27;20031;-49
2022/12/12 16:57:15;;;;;;;29.98;14.95;;;;;;;;;;5100419;28;20132;-49
2022/12/12 16:59:41;;;;;;;29.70;14.57;;;;;;;;;;5110161;28;20028;-49
2022/12/12 17:02:20;;;;;;;27.90;13.88;;;;;;;;;;5092068;28;20071;-49
2022/12/12 17:04:47;;;;;;;30.98;15.52;;;;;;;;;;5088955;28;20081;-51
2022/12/12 17:07:14;;;;;;;25.38;13.45;;;;;;;;;;5089263;28;20060;-51
2022/12/12 17:09:40;;;;;;;27.02;14.77;;;;;;;;;;5089534;28;20024;-48
2022/12/12 17:12:08;;;;;;;26.58;14.48;;;;;;;;;;5105917;28;20028;-49
2022/12/12 17:14:36;;;;;;;32.58;15.15;;;;;;;;;;5109204;28;20534;-50
2022/12/12 17:17:03;;;;;;;27.42;14.13;;;;;;;;;;5107896;28;20405;-50
2022/12/12 17:19:29;;;;;;;25.35;13.85;;;;;;;;;;5107640;28;20331;-48
2022/12/12 17:21:55;;;;;;;28.23;14.98;;;;;;;;;;5106948;28;20468;-51
2022/12/12 17:24:21;;;;;;;29.55;14.45;;;;;;;;;;5090472;28;20038;-50
2022/12/12 17:26:47;;;;;;;27.10;13.98;;;;;;;;;;5108715;28;20059;-50
2022/12/12 17:29:14;;;;;;;26.33;14.38;;;;;;;;;;5107675;28;20038;-50
2022/12/12 17:31:40;;;;;;;27.98;14.23;;;;;;;;;;5107914;28;20031;-50
2022/12/12 17:34:06;;;;;;;28.23;14.80;;;;;;;;;;5090530;28;20042;-49
2022/12/12 17:36:32;;;;;;;27.15;14.40;;;;;;;;;;5098913;28;20031;-53
2022/12/12 17:38:58;;;;;;;24.80;13.32;;;;;;;;;;5087990;28;20028;-50
2022/12/12 17:41:24;;;;;;;24.95;13.48;;;;;;;;;;5104103;28;20432;-48
2022/12/12 17:43:50;;;;;;;26.90;13.48;;;;;;;;;;5108452;28;20084;-49
2022/12/12 17:46:17;;;;;;;25.85;12.95;;;;;;;;;;5107553;28;20043;-51
2022/12/12 17:48:47;;;;;;;27.77;14.02;;;;;;;;;;5107103;28;20410;-50
2022/12/12 17:51:23;;;;;;;24.20;13.40;;;;;;;;;;5089758;28;20035;-54
2022/12/12 17:53:51;;;;;;;27.17;14.68;;;;;;;;;;5105945;28;20020;-51
2022/12/12 17:56:18;;;;;;;27.17;13.90;;;;;;;;;;5105449;28;20092;-53
2022/12/12 17:58:45;;;;;;;31.17;16.05;;;;;;;;;;5105280;28;20020;-51
2022/12/12 18:01:28;;;;;;;33.75;16.27;;;;;;;;;;5106680;28;20453;-49
2022/12/12 18:03:55;;;;;;;39.25;18.35;;;;;;;;;;5090317;28;20037;-50
2022/12/12 18:06:22;;;;;;;35.38;17.58;;;;;;;;;;5124004;27;20038;-51
2022/12/12 18:08:48;;;;;;;36.60;17.13;;;;;;;;;;5126092;27;20068;-49
2022/12/12 18:11:16;;;;;;;42.63;19.83;;;;;;;;;;5126280;27;20106;-50
2022/12/12 18:13:43;;;;;;;45.75;19.92;;;;;;;;;;5112111;27;20391;-51
2022/12/12 18:16:11;;;;;;;39.25;19.02;;;;;;;;;;5084227;28;20039;-49
2022/12/12 18:18:37;;;;;;;50.95;22.65;;;;;;;;;;5103376;28;20436;-53
2022/12/12 18:21:05;;;;;;;37.63;19.08;;;;;;;;;;5104833;28;20027;-50
2022/12/12 18:23:33;;;;;;;40.47;19.50;;;;;;;;;;5104775;28;20024;-54
2022/12/12 18:26:06;;;;;;;38.03;18.27;;;;;;;;;;5105207;28;20035;-50
2022/12/12 18:28:32;;;;;;;33.63;16.13;;;;;;;;;;5105544;28;20023;-52
2022/12/12 18:30:58;;;;;;;31.23;15.77;;;;;;;;;;5101512;28;20060;-53
2022/12/12 18:33:24;;;;;;;36.10;17.55;;;;;;;;;;5099725;28;20498;-52
2022/12/12 18:35:50;;;;;;;39.90;19.70;;;;;;;;;;5104290;28;20234;-52
2022/12/12 18:38:18;;;;;;;43.33;20.80;;;;;;;;;;5085847;28;20324;-54
2022/12/12 18:40:45;;;;;;;42.92;20.83;;;;;;;;;;5105798;28;20111;-52
2022/12/12 18:43:11;;;;;;;46.47;21.65;;;;;;;;;;5091516;28;20038;-53
2022/12/12 18:45:37;;;;;;;45.28;21.20;;;;;;;;;;5086272;28;20039;-53
2022/12/12 18:48:03;;;;;;;33.72;17.40;;;;;;;;;;5105173;28;20031;-50
2022/12/12 18:50:29;;;;;;;32.92;16.38;;;;;;;;;;5104290;28;20402;-54
2022/12/12 18:52:55;;;;;;;33.13;17.02;;;;;;;;;;5105125;28;20023;-52
2022/12/12 18:55:24;;;;;;;31.70;16.33;;;;;;;;;;5105412;28;20032;-52
2022/12/12 18:57:50;;;;;;;29.75;14.90;;;;;;;;;;5104887;28;20038;-52
2022/12/12 19:00:16;;;;;;;26.15;13.75;;;;;;;;;;5104225;28;20522;-50
2022/12/12 19:02:43;;;;;;;26.08;14.35;;;;;;;;;;5104372;28;20020;-50
2022/12/12 19:05:12;;;;;;;26.13;13.38;;;;;;;;;;5101389;28;20024;-51
2022/12/12 19:07:38;;;;;;;25.33;13.75;;;;;;;;;;5085977;28;20030;-53
2022/12/12 19:10:05;;;;;;;28.92;15.30;;;;;;;;;;5105266;28;20035;-54
2022/12/12 19:12:31;;;;;;;26.70;14.18;;;;;;;;;;5099586;28;20072;-50
2022/12/12 19:14:58;;;;;;;27.35;14.02;;;;;;;;;;5103765;28;20498;-53
2022/12/12 19:17:24;;;;;;;26.55;13.73;;;;;;;;;;5104706;28;20686;-52
2022/12/12 19:19:51;;;;;;;29.02;14.20;;;;;;;;;;5101920;28;20516;-50
2022/12/12 19:22:17;;;;;;;29.17;14.75;;;;;;;;;;5087604;28;20062;-52
2022/12/12 19:24:43;;;;;;;26.55;14.05;;;;;;;;;;5106071;28;20108;-49
2022/12/12 19:27:09;;;;;;;29.33;14.38;;;;;;;;;;5098470;28;20540;-52
2022/12/12 19:29:36;;;;;;;29.23;14.48;;;;;;;;;;5099204;28;20147;-50
2022/12/12 19:32:02;;;;;;;28.15;14.70;;;;;;;;;;5086137;28;20528;-53
2022/12/12 19:34:28;;;;;;;29.25;14.82;;;;;;;;;;5101716;28;20046;-50
2022/12/12 19:36:54;;;;;;;24.90;13.50;;;;;;;;;;5106545;28;20440;-52